sensor_id;sensor_type;location;lat;lon;timestamp;temperature;humidity
29939;DHT22;16799;50.844;5.304;2023-02-01T00:02:22;5.70;99.90
29939;DHT22;16799;50.844;5.304;2023-02-01T00:04:48;5.70;99.90
29939;DHT22;16799;50.844;5.304;2023-02-01T00:07:16;5.70;99.90
29939;DHT22;16799;50.844;5.304;2023-02-01T00:09:42;5.70;99.90
29939;DHT22;16799;50.844;5.304;2023-02-01T00:12:07;5.80;99.90
29939;DHT22;16799;50.844;5.304;2023-02-01T00:14:33;5.80;99.90
29939;DHT22;16799;50.844;5.304;2023-02-01T00:17:05;5.80;99.90
29939;DHT22;16799;50.844;5.304;2023-02-01T00:19:31;5.80;99.90
29939;DHT22;16799;50.844;5.304;2023-02-01T00:21:57;5.90;99.90
29939;DHT22;16799;50.844;5.304;2023-02-01T00:24:23;5.90;99.90
29939;DHT22;16799;50.844;5.304;2023-02-01T00:26:48;6.00;99.90
29939;DHT22;16799;50.844;5.304;2023-02-01T00:29:17;6.00;99.90
29939;DHT22;16799;50.844;5.304;2023-02-01T00:31:43;6.00;99.90
29939;DHT22;16799;50.844;5.304;2023-02-01T00:34:14;6.10;99.90
29939;DHT22;16799;50.844;5.304;2023-02-01T00:36:41;6.10;99.90
29939;DHT22;16799;50.844;5.304;2023-02-01T00:39:07;6.10;99.90
29939;DHT22;16799;50.844;5.304;2023-02-01T00:41:33;6.10;99.90
29939;DHT22;16799;50.844;5.304;2023-02-01T00:43:58;6.10;99.90
29939;DHT22;16799;50.844;5.304;2023-02-01T00:46:24;6.10;99.90
29939;DHT22;16799;50.844;5.304;2023-02-01T00:48:50;6.10;99.90
29939;DHT22;16799;50.844;5.304;2023-02-01T00:51:21;6.10;99.90
29939;DHT22;16799;50.844;5.304;2023-02-01T00:53:48;6.10;99.90
29939;DHT22;16799;50.844;5.304;2023-02-01T00:56:14;6.10;99.90
29939;DHT22;16799;50.844;5.304;2023-02-01T00:58:40;6.10;99.90
29939;DHT22;16799;50.844;5.304;2023-02-01T01:01:16;6.10;99.90
29939;DHT22;16799;50.844;5.304;2023-02-01T01:03:57;6.10;99.90
29939;DHT22;16799;50.844;5.304;2023-02-01T01:06:26;6.10;99.90
29939;DHT22;16799;50.844;5.304;2023-02-01T01:08:53;6.10;99.90
29939;DHT22;16799;50.844;5.304;2023-02-01T01:11:25;6.10;99.90
29939;DHT22;16799;50.844;5.304;2023-02-01T01:13:52;6.10;99.90
29939;DHT22;16799;50.844;5.304;2023-02-01T01:16:19;6.10;99.90
29939;DHT22;16799;50.844;5.304;2023-02-01T01:18:46;6.10;99.90
29939;DHT22;16799;50.844;5.304;2023-02-01T01:21:13;6.10;99.90
29939;DHT22;16799;50.844;5.304;2023-02-01T01:23:39;6.10;99.90
29939;DHT22;16799;50.844;5.304;2023-02-01T01:26:10;6.10;99.90
29939;DHT22;16799;50.844;5.304;2023-02-01T01:28:36;6.10;99.90
29939;DHT22;16799;50.844;5.304;2023-02-01T01:31:02;6.10;99.90
29939;DHT22;16799;50.844;5.304;2023-02-01T01:33:28;6.20;99.90
29939;DHT22;16799;50.844;5.304;2023-02-01T01:35:54;6.20;99.90
29939;DHT22;16799;50.844;5.304;2023-02-01T01:38:19;6.20;99.90
29939;DHT22;16799;50.844;5.304;2023-02-01T01:40:46;6.30;99.90
29939;DHT22;16799;50.844;5.304;2023-02-01T01:43:17;6.30;99.90
29939;DHT22;16799;50.844;5.304;2023-02-01T01:45:44;6.30;99.90
29939;DHT22;16799;50.844;5.304;2023-02-01T01:48:16;6.30;99.90
29939;DHT22;16799;50.844;5.304;2023-02-01T01:50:46;6.30;99.90
29939;DHT22;16799;50.844;5.304;2023-02-01T01:53:17;6.30;99.90
29939;DHT22;16799;50.844;5.304;2023-02-01T01:55:45;6.30;99.90
29939;DHT22;16799;50.844;5.304;2023-02-01T01:58:16;6.40;99.90
29939;DHT22;16799;50.844;5.304;2023-02-01T02:00:43;6.40;99.90
29939;DHT22;16799;50.844;5.304;2023-02-01T02:03:23;6.40;99.90
29939;DHT22;16799;50.844;5.304;2023-02-01T02:05:53;6.40;99.90
29939;DHT22;16799;50.844;5.304;2023-02-01T02:08:20;6.40;99.90
29939;DHT22;16799;50.844;5.304;2023-02-01T02:10:50;6.40;99.90
29939;DHT22;16799;50.844;5.304;2023-02-01T02:13:31;6.40;99.90
29939;DHT22;16799;50.844;5.304;2023-02-01T02:27:51;6.40;99.90
29939;DHT22;16799;50.844;5.304;2023-02-01T02:36:16;6.40;99.90
29939;DHT22;16799;50.844;5.304;2023-02-01T02:38:43;6.40;99.90
29939;DHT22;16799;50.844;5.304;2023-02-01T02:41:13;6.40;99.90
29939;DHT22;16799;50.844;5.304;2023-02-01T02:44:06;6.40;99.90
29939;DHT22;16799;50.844;5.304;2023-02-01T02:46:59;6.40;99.90
29939;DHT22;16799;50.844;5.304;2023-02-01T02:52:45;6.40;99.90
29939;DHT22;16799;50.844;5.304;2023-02-01T02:55:32;6.40;99.90
29939;DHT22;16799;50.844;5.304;2023-02-01T02:58:03;6.40;99.90
29939;DHT22;16799;50.844;5.304;2023-02-01T03:00:49;6.40;99.90
29939;DHT22;16799;50.844;5.304;2023-02-01T03:03:37;6.30;99.90
29939;DHT22;16799;50.844;5.304;2023-02-01T03:06:23;6.20;99.90
29939;DHT22;16799;50.844;5.304;2023-02-01T03:08:49;6.10;99.90
29939;DHT22;16799;50.844;5.304;2023-02-01T03:11:20;6.20;99.90
29939;DHT22;16799;50.844;5.304;2023-02-01T03:13:52;6.20;99.90
29939;DHT22;16799;50.844;5.304;2023-02-01T03:19:21;6.10;99.90
29939;DHT22;16799;50.844;5.304;2023-02-01T03:22:05;6.00;99.90
29939;DHT22;16799;50.844;5.304;2023-02-01T03:24:41;6.00;99.90
29939;DHT22;16799;50.844;5.304;2023-02-01T03:27:22;6.00;99.90
29939;DHT22;16799;50.844;5.304;2023-02-01T03:30:13;5.90;99.90
29939;DHT22;16799;50.844;5.304;2023-02-01T03:32:45;5.90;99.90
29939;DHT22;16799;50.844;5.304;2023-02-01T03:38:43;5.80;99.90
29939;DHT22;16799;50.844;5.304;2023-02-01T03:41:34;5.80;99.90
29939;DHT22;16799;50.844;5.304;2023-02-01T03:44:28;5.80;99.90
29939;DHT22;16799;50.844;5.304;2023-02-01T03:49:40;5.90;99.90
29939;DHT22;16799;50.844;5.304;2023-02-01T03:52:11;5.90;99.90
29939;DHT22;16799;50.844;5.304;2023-02-01T03:54:38;5.90;99.90
29939;DHT22;16799;50.844;5.304;2023-02-01T03:57:08;5.90;99.90
29939;DHT22;16799;50.844;5.304;2023-02-01T03:59:41;5.80;99.90
29939;DHT22;16799;50.844;5.304;2023-02-01T04:02:07;5.70;99.90
29939;DHT22;16799;50.844;5.304;2023-02-01T04:04:34;5.70;99.90
29939;DHT22;16799;50.844;5.304;2023-02-01T04:07:00;5.60;99.90
29939;DHT22;16799;50.844;5.304;2023-02-01T04:09:26;5.60;99.90
29939;DHT22;16799;50.844;5.304;2023-02-01T04:11:51;5.50;99.90
29939;DHT22;16799;50.844;5.304;2023-02-01T04:14:17;5.50;99.90
29939;DHT22;16799;50.844;5.304;2023-02-01T04:16:42;5.40;99.90
29939;DHT22;16799;50.844;5.304;2023-02-01T04:19:08;5.40;99.90
29939;DHT22;16799;50.844;5.304;2023-02-01T04:21:34;5.30;99.90
29939;DHT22;16799;50.844;5.304;2023-02-01T04:23:59;5.30;99.90
29939;DHT22;16799;50.844;5.304;2023-02-01T04:26:25;5.30;99.90
29939;DHT22;16799;50.844;5.304;2023-02-01T04:28:51;5.30;99.90
29939;DHT22;16799;50.844;5.304;2023-02-01T04:31:18;5.30;99.90
29939;DHT22;16799;50.844;5.304;2023-02-01T04:33:54;5.30;99.90
29939;DHT22;16799;50.844;5.304;2023-02-01T04:36:21;5.20;99.90
29939;DHT22;16799;50.844;5.304;2023-02-01T04:38:48;5.10;99.90
29939;DHT22;16799;50.844;5.304;2023-02-01T04:41:14;5.10;99.90
29939;DHT22;16799;50.844;5.304;2023-02-01T04:43:41;5.10;99.90
29939;DHT22;16799;50.844;5.304;2023-02-01T04:46:06;5.10;99.90
29939;DHT22;16799;50.844;5.304;2023-02-01T04:48:32;5.10;99.90
29939;DHT22;16799;50.844;5.304;2023-02-01T04:50:57;5.10;99.90
29939;DHT22;16799;50.844;5.304;2023-02-01T04:53:23;5.10;99.90
29939;DHT22;16799;50.844;5.304;2023-02-01T04:55:49;5.10;99.90
29939;DHT22;16799;50.844;5.304;2023-02-01T04:58:15;5.10;99.90
29939;DHT22;16799;50.844;5.304;2023-02-01T05:00:41;5.10;99.90
29939;DHT22;16799;50.844;5.304;2023-02-01T05:03:07;5.10;99.90
29939;DHT22;16799;50.844;5.304;2023-02-01T05:05:32;5.10;99.90
29939;DHT22;16799;50.844;5.304;2023-02-01T05:07:58;5.10;99.90
29939;DHT22;16799;50.844;5.304;2023-02-01T05:10:24;5.10;99.90
29939;DHT22;16799;50.844;5.304;2023-02-01T05:12:50;5.10;99.90
29939;DHT22;16799;50.844;5.304;2023-02-01T05:15:34;5.10;99.90
29939;DHT22;16799;50.844;5.304;2023-02-01T05:18:00;5.00;99.90
29939;DHT22;16799;50.844;5.304;2023-02-01T05:20:25;5.00;99.90
29939;DHT22;16799;50.844;5.304;2023-02-01T05:22:51;5.00;99.90
29939;DHT22;16799;50.844;5.304;2023-02-01T05:25:17;5.00;99.90
29939;DHT22;16799;50.844;5.304;2023-02-01T05:27:42;4.90;99.90
29939;DHT22;16799;50.844;5.304;2023-02-01T05:30:09;4.90;99.90
29939;DHT22;16799;50.844;5.304;2023-02-01T05:32:34;4.90;99.90
29939;DHT22;16799;50.844;5.304;2023-02-01T05:35:03;4.90;99.90
29939;DHT22;16799;50.844;5.304;2023-02-01T05:37:28;4.90;99.90
29939;DHT22;16799;50.844;5.304;2023-02-01T05:39:54;4.90;99.90
29939;DHT22;16799;50.844;5.304;2023-02-01T05:42:20;4.90;99.90
29939;DHT22;16799;50.844;5.304;2023-02-01T05:44:45;4.80;99.90
29939;DHT22;16799;50.844;5.304;2023-02-01T05:47:11;4.80;99.90
29939;DHT22;16799;50.844;5.304;2023-02-01T05:49:37;4.80;99.90
29939;DHT22;16799;50.844;5.304;2023-02-01T05:52:03;4.80;99.90
29939;DHT22;16799;50.844;5.304;2023-02-01T05:54:29;4.80;99.90
29939;DHT22;16799;50.844;5.304;2023-02-01T05:56:55;4.70;99.90
29939;DHT22;16799;50.844;5.304;2023-02-01T05:59:20;4.80;99.90
29939;DHT22;16799;50.844;5.304;2023-02-01T06:01:46;4.70;99.90
29939;DHT22;16799;50.844;5.304;2023-02-01T06:04:11;4.60;99.90
29939;DHT22;16799;50.844;5.304;2023-02-01T06:06:37;4.60;99.90
29939;DHT22;16799;50.844;5.304;2023-02-01T06:09:03;4.60;99.90
29939;DHT22;16799;50.844;5.304;2023-02-01T06:11:29;4.70;99.90
29939;DHT22;16799;50.844;5.304;2023-02-01T06:13:55;4.70;99.90
29939;DHT22;16799;50.844;5.304;2023-02-01T06:16:21;4.50;99.90
29939;DHT22;16799;50.844;5.304;2023-02-01T06:18:47;4.50;99.90
29939;DHT22;16799;50.844;5.304;2023-02-01T06:21:13;4.50;99.90
29939;DHT22;16799;50.844;5.304;2023-02-01T06:23:41;4.50;99.90
29939;DHT22;16799;50.844;5.304;2023-02-01T06:26:07;4.50;99.90
29939;DHT22;16799;50.844;5.304;2023-02-01T06:28:34;4.50;99.90
29939;DHT22;16799;50.844;5.304;2023-02-01T06:31:04;4.40;99.90
29939;DHT22;16799;50.844;5.304;2023-02-01T06:33:32;4.40;99.90
29939;DHT22;16799;50.844;5.304;2023-02-01T06:35:59;4.40;99.90
29939;DHT22;16799;50.844;5.304;2023-02-01T06:38:26;4.50;99.90
29939;DHT22;16799;50.844;5.304;2023-02-01T06:40:56;4.50;99.90
29939;DHT22;16799;50.844;5.304;2023-02-01T06:43:23;4.40;99.90
29939;DHT22;16799;50.844;5.304;2023-02-01T06:45:49;4.40;99.90
29939;DHT22;16799;50.844;5.304;2023-02-01T06:48:15;4.30;99.90
29939;DHT22;16799;50.844;5.304;2023-02-01T06:50:41;4.30;99.90
29939;DHT22;16799;50.844;5.304;2023-02-01T06:53:06;4.30;99.90
29939;DHT22;16799;50.844;5.304;2023-02-01T06:55:32;4.20;99.90
29939;DHT22;16799;50.844;5.304;2023-02-01T06:57:57;4.20;99.90
29939;DHT22;16799;50.844;5.304;2023-02-01T07:00:23;4.30;99.90
29939;DHT22;16799;50.844;5.304;2023-02-01T07:02:49;4.20;99.90
29939;DHT22;16799;50.844;5.304;2023-02-01T07:05:18;4.30;99.90
29939;DHT22;16799;50.844;5.304;2023-02-01T07:07:44;4.20;99.90
29939;DHT22;16799;50.844;5.304;2023-02-01T07:10:10;4.20;99.90
29939;DHT22;16799;50.844;5.304;2023-02-01T07:12:36;4.20;99.90
29939;DHT22;16799;50.844;5.304;2023-02-01T07:15:02;4.20;99.90
29939;DHT22;16799;50.844;5.304;2023-02-01T07:17:28;4.20;99.90
29939;DHT22;16799;50.844;5.304;2023-02-01T07:19:55;4.20;99.90
29939;DHT22;16799;50.844;5.304;2023-02-01T07:22:21;4.10;99.90
29939;DHT22;16799;50.844;5.304;2023-02-01T07:24:47;4.10;99.90
29939;DHT22;16799;50.844;5.304;2023-02-01T07:27:12;4.20;99.90
29939;DHT22;16799;50.844;5.304;2023-02-01T07:29:38;4.10;99.90
29939;DHT22;16799;50.844;5.304;2023-02-01T07:32:05;4.20;99.90
29939;DHT22;16799;50.844;5.304;2023-02-01T07:34:31;4.10;99.90
29939;DHT22;16799;50.844;5.304;2023-02-01T07:36:56;4.10;99.90
29939;DHT22;16799;50.844;5.304;2023-02-01T07:39:22;4.10;99.90
29939;DHT22;16799;50.844;5.304;2023-02-01T07:41:48;4.10;99.90
29939;DHT22;16799;50.844;5.304;2023-02-01T07:44:13;4.10;99.90
29939;DHT22;16799;50.844;5.304;2023-02-01T07:46:39;4.20;99.90
29939;DHT22;16799;50.844;5.304;2023-02-01T07:49:05;4.10;99.90
29939;DHT22;16799;50.844;5.304;2023-02-01T07:51:31;4.10;99.90
29939;DHT22;16799;50.844;5.304;2023-02-01T07:53:57;4.10;99.90
29939;DHT22;16799;50.844;5.304;2023-02-01T07:56:23;4.20;99.90
29939;DHT22;16799;50.844;5.304;2023-02-01T07:58:49;4.20;99.90
29939;DHT22;16799;50.844;5.304;2023-02-01T08:01:17;4.20;99.90
29939;DHT22;16799;50.844;5.304;2023-02-01T08:03:59;4.20;99.90
29939;DHT22;16799;50.844;5.304;2023-02-01T08:06:26;4.20;99.90
29939;DHT22;16799;50.844;5.304;2023-02-01T08:08:53;4.30;99.90
29939;DHT22;16799;50.844;5.304;2023-02-01T08:11:20;4.30;99.90
29939;DHT22;16799;50.844;5.304;2023-02-01T08:13:46;4.30;99.90
29939;DHT22;16799;50.844;5.304;2023-02-01T08:16:13;4.40;99.90
29939;DHT22;16799;50.844;5.304;2023-02-01T08:18:39;4.50;99.90
29939;DHT22;16799;50.844;5.304;2023-02-01T08:21:07;4.50;99.90
29939;DHT22;16799;50.844;5.304;2023-02-01T08:23:34;4.60;99.90
29939;DHT22;16799;50.844;5.304;2023-02-01T08:28:47;4.80;99.90
29939;DHT22;16799;50.844;5.304;2023-02-01T08:31:15;4.80;99.90
29939;DHT22;16799;50.844;5.304;2023-02-01T08:33:42;4.90;99.90
29939;DHT22;16799;50.844;5.304;2023-02-01T08:36:09;4.90;99.90
29939;DHT22;16799;50.844;5.304;2023-02-01T08:38:37;5.00;99.90
29939;DHT22;16799;50.844;5.304;2023-02-01T08:41:09;5.00;99.90
29939;DHT22;16799;50.844;5.304;2023-02-01T08:43:35;5.10;99.90
29939;DHT22;16799;50.844;5.304;2023-02-01T08:46:02;5.10;99.90
29939;DHT22;16799;50.844;5.304;2023-02-01T08:48:27;5.10;99.90
29939;DHT22;16799;50.844;5.304;2023-02-01T08:50:53;5.10;99.90
29939;DHT22;16799;50.844;5.304;2023-02-01T08:53:19;5.10;99.90
29939;DHT22;16799;50.844;5.304;2023-02-01T08:55:46;5.20;99.90
29939;DHT22;16799;50.844;5.304;2023-02-01T08:58:12;5.20;99.90
29939;DHT22;16799;50.844;5.304;2023-02-01T09:00:39;5.20;99.90
29939;DHT22;16799;50.844;5.304;2023-02-01T09:03:07;5.20;99.90
29939;DHT22;16799;50.844;5.304;2023-02-01T09:05:34;5.20;99.90
29939;DHT22;16799;50.844;5.304;2023-02-01T09:08:00;5.30;99.90
29939;DHT22;16799;50.844;5.304;2023-02-01T09:10:26;5.30;99.90
29939;DHT22;16799;50.844;5.304;2023-02-01T09:12:51;5.30;99.90
29939;DHT22;16799;50.844;5.304;2023-02-01T09:15:17;5.40;99.90
29939;DHT22;16799;50.844;5.304;2023-02-01T09:17:43;5.40;99.90
29939;DHT22;16799;50.844;5.304;2023-02-01T09:20:09;5.40;99.90
29939;DHT22;16799;50.844;5.304;2023-02-01T09:22:35;5.40;99.90
29939;DHT22;16799;50.844;5.304;2023-02-01T09:25:01;5.40;99.90
29939;DHT22;16799;50.844;5.304;2023-02-01T09:27:26;5.50;99.90
29939;DHT22;16799;50.844;5.304;2023-02-01T09:29:52;5.60;99.90
29939;DHT22;16799;50.844;5.304;2023-02-01T09:32:22;5.60;99.90
29939;DHT22;16799;50.844;5.304;2023-02-01T09:34:50;5.70;99.90
29939;DHT22;16799;50.844;5.304;2023-02-01T09:37:16;5.70;99.90
29939;DHT22;16799;50.844;5.304;2023-02-01T09:39:41;5.70;99.90
29939;DHT22;16799;50.844;5.304;2023-02-01T09:47:49;6.00;99.90
29939;DHT22;16799;50.844;5.304;2023-02-01T09:50:19;6.10;99.90
29939;DHT22;16799;50.844;5.304;2023-02-01T09:52:57;6.20;99.90
29939;DHT22;16799;50.844;5.304;2023-02-01T09:55:42;6.30;99.90
29939;DHT22;16799;50.844;5.304;2023-02-01T09:58:22;6.40;99.90
29939;DHT22;16799;50.844;5.304;2023-02-01T10:00:53;6.40;99.90
29939;DHT22;16799;50.844;5.304;2023-02-01T10:03:19;6.40;99.90
29939;DHT22;16799;50.844;5.304;2023-02-01T10:09:06;6.70;99.90
29939;DHT22;16799;50.844;5.304;2023-02-01T10:26:22;7.90;99.90
29939;DHT22;16799;50.844;5.304;2023-02-01T10:28:56;7.90;99.90
29939;DHT22;16799;50.844;5.304;2023-02-01T10:31:26;8.10;99.90
29939;DHT22;16799;50.844;5.304;2023-02-01T10:34:00;8.10;99.90
29939;DHT22;16799;50.844;5.304;2023-02-01T10:36:36;8.20;99.90
29939;DHT22;16799;50.844;5.304;2023-02-01T10:39:05;8.20;99.90
29939;DHT22;16799;50.844;5.304;2023-02-01T10:41:35;8.40;99.90
29939;DHT22;16799;50.844;5.304;2023-02-01T10:44:04;8.60;99.90
29939;DHT22;16799;50.844;5.304;2023-02-01T10:46:31;8.50;99.90
29939;DHT22;16799;50.844;5.304;2023-02-01T10:48:59;8.50;99.90
29939;DHT22;16799;50.844;5.304;2023-02-01T10:51:54;8.50;99.90
29939;DHT22;16799;50.844;5.304;2023-02-01T10:54:34;8.50;99.90
29939;DHT22;16799;50.844;5.304;2023-02-01T10:57:00;8.90;99.90
29939;DHT22;16799;50.844;5.304;2023-02-01T10:59:28;8.90;99.90
29939;DHT22;16799;50.844;5.304;2023-02-01T11:02:05;8.90;99.90
29939;DHT22;16799;50.844;5.304;2023-02-01T11:04:38;9.00;99.90
29939;DHT22;16799;50.844;5.304;2023-02-01T11:07:20;9.10;99.90
29939;DHT22;16799;50.844;5.304;2023-02-01T11:09:53;9.20;99.90
29939;DHT22;16799;50.844;5.304;2023-02-01T11:12:25;9.40;99.90
29939;DHT22;16799;50.844;5.304;2023-02-01T11:14:58;9.50;99.90
29939;DHT22;16799;50.844;5.304;2023-02-01T11:17:28;9.50;99.90
29939;DHT22;16799;50.844;5.304;2023-02-01T11:19:59;9.70;99.90
29939;DHT22;16799;50.844;5.304;2023-02-01T11:22:26;9.70;99.90
29939;DHT22;16799;50.844;5.304;2023-02-01T11:24:53;9.90;99.90
29939;DHT22;16799;50.844;5.304;2023-02-01T11:27:21;9.60;99.90
29939;DHT22;16799;50.844;5.304;2023-02-01T11:29:51;9.60;99.90
29939;DHT22;16799;50.844;5.304;2023-02-01T11:32:19;9.70;99.90
29939;DHT22;16799;50.844;5.304;2023-02-01T11:34:49;9.60;99.90
29939;DHT22;16799;50.844;5.304;2023-02-01T11:37:35;9.50;99.90
29939;DHT22;16799;50.844;5.304;2023-02-01T11:40:09;9.60;99.90
29939;DHT22;16799;50.844;5.304;2023-02-01T11:42:59;9.80;99.90
29939;DHT22;16799;50.844;5.304;2023-02-01T11:45:30;9.90;99.90
29939;DHT22;16799;50.844;5.304;2023-02-01T11:47:58;10.30;99.90
29939;DHT22;16799;50.844;5.304;2023-02-01T11:56:19;10.50;99.90
29939;DHT22;16799;50.844;5.304;2023-02-01T12:18:13;9.90;99.90
29939;DHT22;16799;50.844;5.304;2023-02-01T12:27:26;9.40;99.90
29939;DHT22;16799;50.844;5.304;2023-02-01T12:46:31;9.60;99.90
29939;DHT22;16799;50.844;5.304;2023-02-01T12:49:28;9.60;99.90
29939;DHT22;16799;50.844;5.304;2023-02-01T12:52:02;9.40;99.90
29939;DHT22;16799;50.844;5.304;2023-02-01T12:54:53;9.20;99.90
29939;DHT22;16799;50.844;5.304;2023-02-01T12:57:30;9.10;99.90
29939;DHT22;16799;50.844;5.304;2023-02-01T13:00:00;9.00;99.90
29939;DHT22;16799;50.844;5.304;2023-02-01T13:02:52;9.00;99.90
29939;DHT22;16799;50.844;5.304;2023-02-01T13:05:48;8.90;99.90
29939;DHT22;16799;50.844;5.304;2023-02-01T13:08:24;8.90;99.90
29939;DHT22;16799;50.844;5.304;2023-02-01T13:11:03;8.90;99.90
29939;DHT22;16799;50.844;5.304;2023-02-01T13:13:49;8.90;99.90
29939;DHT22;16799;50.844;5.304;2023-02-01T13:16:28;8.90;99.90
29939;DHT22;16799;50.844;5.304;2023-02-01T13:19:09;8.90;99.90
29939;DHT22;16799;50.844;5.304;2023-02-01T13:21:42;8.90;99.90
29939;DHT22;16799;50.844;5.304;2023-02-01T13:26:46;8.90;99.90
29939;DHT22;16799;50.844;5.304;2023-02-01T13:29:12;8.90;99.90
29939;DHT22;16799;50.844;5.304;2023-02-01T13:35:07;9.00;99.90
29939;DHT22;16799;50.844;5.304;2023-02-01T13:42:56;9.00;99.90
29939;DHT22;16799;50.844;5.304;2023-02-01T13:45:30;9.10;99.90
29939;DHT22;16799;50.844;5.304;2023-02-01T13:48:00;9.00;99.90
29939;DHT22;16799;50.844;5.304;2023-02-01T13:50:30;9.00;99.90
29939;DHT22;16799;50.844;5.304;2023-02-01T13:58:35;9.00;99.90
29939;DHT22;16799;50.844;5.304;2023-02-01T14:03:47;9.00;99.90
29939;DHT22;16799;50.844;5.304;2023-02-01T14:09:16;9.10;99.90
29939;DHT22;16799;50.844;5.304;2023-02-01T14:11:50;9.10;99.90
29939;DHT22;16799;50.844;5.304;2023-02-01T14:19:22;9.30;99.90
29939;DHT22;16799;50.844;5.304;2023-02-01T14:24:22;9.30;99.90
29939;DHT22;16799;50.844;5.304;2023-02-01T14:26:51;9.20;99.90
29939;DHT22;16799;50.844;5.304;2023-02-01T14:29:37;9.20;99.90
29939;DHT22;16799;50.844;5.304;2023-02-01T14:32:17;9.10;99.90
29939;DHT22;16799;50.844;5.304;2023-02-01T14:47:51;9.10;99.90
29939;DHT22;16799;50.844;5.304;2023-02-01T14:57:59;9.10;99.90
29939;DHT22;16799;50.844;5.304;2023-02-01T15:00:29;9.10;99.90
29939;DHT22;16799;50.844;5.304;2023-02-01T15:03:16;9.10;99.90
29939;DHT22;16799;50.844;5.304;2023-02-01T15:05:55;9.00;99.90
29939;DHT22;16799;50.844;5.304;2023-02-01T15:08:26;9.10;99.90
29939;DHT22;16799;50.844;5.304;2023-02-01T15:10:54;9.10;99.90
29939;DHT22;16799;50.844;5.304;2023-02-01T15:13:22;9.00;99.90
29939;DHT22;16799;50.844;5.304;2023-02-01T15:16:17;9.10;99.90
29939;DHT22;16799;50.844;5.304;2023-02-01T15:18:43;9.10;99.90
29939;DHT22;16799;50.844;5.304;2023-02-01T15:21:21;9.10;99.90
29939;DHT22;16799;50.844;5.304;2023-02-01T15:23:47;9.10;99.90
29939;DHT22;16799;50.844;5.304;2023-02-01T15:26:31;9.00;99.90
29939;DHT22;16799;50.844;5.304;2023-02-01T15:29:00;9.00;99.90
29939;DHT22;16799;50.844;5.304;2023-02-01T15:31:37;9.00;99.90
29939;DHT22;16799;50.844;5.304;2023-02-01T15:34:04;9.00;99.90
29939;DHT22;16799;50.844;5.304;2023-02-01T15:36:30;9.00;99.90
29939;DHT22;16799;50.844;5.304;2023-02-01T15:39:24;9.00;99.90
29939;DHT22;16799;50.844;5.304;2023-02-01T15:42:01;8.90;99.90
29939;DHT22;16799;50.844;5.304;2023-02-01T15:44:38;8.80;99.90
29939;DHT22;16799;50.844;5.304;2023-02-01T15:47:25;8.70;99.90
29939;DHT22;16799;50.844;5.304;2023-02-01T15:49:53;8.50;99.90
29939;DHT22;16799;50.844;5.304;2023-02-01T15:54:58;8.20;99.90
29939;DHT22;16799;50.844;5.304;2023-02-01T15:57:34;8.20;99.90
29939;DHT22;16799;50.844;5.304;2023-02-01T16:00:06;8.10;99.90
29939;DHT22;16799;50.844;5.304;2023-02-01T16:02:54;8.00;99.90
29939;DHT22;16799;50.844;5.304;2023-02-01T16:05:36;8.00;99.90
29939;DHT22;16799;50.844;5.304;2023-02-01T16:08:13;8.00;99.90
29939;DHT22;16799;50.844;5.304;2023-02-01T16:10:43;7.90;99.90
29939;DHT22;16799;50.844;5.304;2023-02-01T16:13:09;7.90;99.90
29939;DHT22;16799;50.844;5.304;2023-02-01T16:15:35;8.00;99.90
29939;DHT22;16799;50.844;5.304;2023-02-01T16:18:00;8.00;99.90
29939;DHT22;16799;50.844;5.304;2023-02-01T16:20:26;8.00;99.90
29939;DHT22;16799;50.844;5.304;2023-02-01T16:22:52;8.10;99.90
29939;DHT22;16799;50.844;5.304;2023-02-01T16:25:18;8.10;99.90
29939;DHT22;16799;50.844;5.304;2023-02-01T16:27:43;8.10;99.90
29939;DHT22;16799;50.844;5.304;2023-02-01T16:30:09;8.20;99.90
29939;DHT22;16799;50.844;5.304;2023-02-01T16:32:36;8.20;99.90
29939;DHT22;16799;50.844;5.304;2023-02-01T16:35:22;8.10;99.90
29939;DHT22;16799;50.844;5.304;2023-02-01T16:37:48;8.10;99.90
29939;DHT22;16799;50.844;5.304;2023-02-01T16:40:15;8.10;99.90
29939;DHT22;16799;50.844;5.304;2023-02-01T16:42:42;8.10;99.90
29939;DHT22;16799;50.844;5.304;2023-02-01T16:45:08;8.20;99.90
29939;DHT22;16799;50.844;5.304;2023-02-01T16:47:36;8.20;99.90
29939;DHT22;16799;50.844;5.304;2023-02-01T16:50:03;8.20;99.90
29939;DHT22;16799;50.844;5.304;2023-02-01T16:52:29;8.30;99.90
29939;DHT22;16799;50.844;5.304;2023-02-01T16:54:55;8.20;99.90
29939;DHT22;16799;50.844;5.304;2023-02-01T16:57:21;8.10;99.90
29939;DHT22;16799;50.844;5.304;2023-02-01T16:59:49;7.90;99.90
29939;DHT22;16799;50.844;5.304;2023-02-01T17:02:19;7.80;99.90
29939;DHT22;16799;50.844;5.304;2023-02-01T17:04:49;7.90;99.90
29939;DHT22;16799;50.844;5.304;2023-02-01T17:07:16;8.00;99.90
29939;DHT22;16799;50.844;5.304;2023-02-01T17:09:44;7.90;99.90
29939;DHT22;16799;50.844;5.304;2023-02-01T17:12:30;7.90;99.90
29939;DHT22;16799;50.844;5.304;2023-02-01T17:14:57;7.90;99.90
29939;DHT22;16799;50.844;5.304;2023-02-01T17:17:25;7.90;99.90
29939;DHT22;16799;50.844;5.304;2023-02-01T17:19:53;7.80;99.90
29939;DHT22;16799;50.844;5.304;2023-02-01T17:22:20;7.90;99.90
29939;DHT22;16799;50.844;5.304;2023-02-01T17:24:46;7.80;99.90
29939;DHT22;16799;50.844;5.304;2023-02-01T17:27:12;7.80;99.90
29939;DHT22;16799;50.844;5.304;2023-02-01T17:29:38;7.70;99.90
29939;DHT22;16799;50.844;5.304;2023-02-01T17:32:04;7.70;99.90
29939;DHT22;16799;50.844;5.304;2023-02-01T17:34:29;7.60;99.90
29939;DHT22;16799;50.844;5.304;2023-02-01T17:36:55;7.60;99.90
29939;DHT22;16799;50.844;5.304;2023-02-01T17:39:21;7.60;99.90
29939;DHT22;16799;50.844;5.304;2023-02-01T17:42:10;7.70;99.90
29939;DHT22;16799;50.844;5.304;2023-02-01T17:44:36;7.70;99.90
29939;DHT22;16799;50.844;5.304;2023-02-01T17:47:02;7.60;99.90
29939;DHT22;16799;50.844;5.304;2023-02-01T17:49:28;7.60;99.90
29939;DHT22;16799;50.844;5.304;2023-02-01T17:51:54;7.60;99.90
29939;DHT22;16799;50.844;5.304;2023-02-01T17:54:20;7.60;99.90
29939;DHT22;16799;50.844;5.304;2023-02-01T17:56:46;7.60;99.90
29939;DHT22;16799;50.844;5.304;2023-02-01T17:59:13;7.60;99.90
29939;DHT22;16799;50.844;5.304;2023-02-01T18:01:40;7.60;99.90
29939;DHT22;16799;50.844;5.304;2023-02-01T18:04:08;7.60;99.90
29939;DHT22;16799;50.844;5.304;2023-02-01T18:06:36;7.60;99.90
29939;DHT22;16799;50.844;5.304;2023-02-01T18:09:02;7.60;99.90
29939;DHT22;16799;50.844;5.304;2023-02-01T18:11:27;7.60;99.90
29939;DHT22;16799;50.844;5.304;2023-02-01T18:13:57;7.60;99.90
29939;DHT22;16799;50.844;5.304;2023-02-01T18:16:24;7.60;99.90
29939;DHT22;16799;50.844;5.304;2023-02-01T18:18:51;7.60;99.90
29939;DHT22;16799;50.844;5.304;2023-02-01T18:21:36;7.60;99.90
29939;DHT22;16799;50.844;5.304;2023-02-01T18:24:03;7.70;99.90
29939;DHT22;16799;50.844;5.304;2023-02-01T18:26:29;7.70;99.90
29939;DHT22;16799;50.844;5.304;2023-02-01T18:28:54;7.70;99.90
29939;DHT22;16799;50.844;5.304;2023-02-01T18:31:25;7.70;99.90
29939;DHT22;16799;50.844;5.304;2023-02-01T18:33:53;7.70;99.90
29939;DHT22;16799;50.844;5.304;2023-02-01T18:36:19;7.80;99.90
29939;DHT22;16799;50.844;5.304;2023-02-01T18:38:45;7.70;99.90
29939;DHT22;16799;50.844;5.304;2023-02-01T18:41:17;7.80;99.90